Time;durP1;ratioP1;P1;durP2;ratioP2;P2;SDS_P1;SDS_P2;PMS_P1;PMS_P2;Temp;Humidity;BMP_temperature;BMP_pressure;BME280_temperature;BME280_humidity;BME280_pressure;Samples;Min_cycle;Max_cycle;Signal;HPM_P1;HPM_P2
2023/09/29 00:00:48;;;;;;;6.25;3.70;;;22.90;99.90;;;;;;5034393;28;20248;-79
2023/09/29 00:03:19;;;;;;;5.60;3.70;;;22.90;99.90;;;;;;5044207;28;20249;-80
2023/09/29 00:05:50;;;;;;;6.72;4.07;;;23.00;99.90;;;;;;5045796;28;20189;-80
2023/09/29 00:08:23;;;;;;;9.98;4.60;;;23.10;99.90;;;;;;5039391;28;20193;-79
2023/09/29 00:11:15;;;;;;;10.88;5.13;;;23.20;99.90;;;;;;5075392;27;20663;-76
2023/09/29 00:13:45;;;;;;;9.18;4.78;;;23.30;99.90;;;;;;5058402;28;20243;-80
2023/09/29 00:16:16;;;;;;;5.97;4.20;;;23.40;99.90;;;;;;5059690;28;20204;-79
2023/09/29 00:18:47;;;;;;;6.88;4.28;;;23.60;99.90;;;;;;5064242;28;20279;-78
2023/09/29 00:21:18;;;;;;;4.63;3.63;;;23.70;99.90;;;;;;5060852;28;20201;-80
2023/09/29 00:23:48;;;;;;;6.00;3.90;;;23.90;99.90;;;;;;5067147;28;20276;-80
2023/09/29 00:26:21;;;;;;;12.50;3.80;;;23.90;99.90;;;;;;5067096;28;20574;-80
2023/09/29 00:28:52;;;;;;;7.30;3.70;;;24.10;99.90;;;;;;5065830;28;20208;-79
2023/09/29 00:31:23;;;;;;;6.70;3.38;;;24.20;99.90;;;;;;5061566;28;20208;-80
2023/09/29 00:33:56;;;;;;;5.57;3.40;;;24.30;99.90;;;;;;5063990;28;20197;-79
2023/09/29 00:36:27;;;;;;;4.00;3.22;;;24.50;99.90;;;;;;5067118;28;20227;-81
2023/09/29 00:38:58;;;;;;;4.78;3.15;;;24.60;99.90;;;;;;5066138;28;20570;-78
2023/09/29 00:41:31;;;;;;;6.68;3.30;;;24.70;99.90;;;;;;5064197;28;20204;-79
2023/09/29 00:44:02;;;;;;;5.15;3.72;;;24.80;99.90;;;;;;5062966;28;20552;-76
2023/09/29 00:46:33;;;;;;;4.28;3.40;;;24.80;99.90;;;;;;5051806;28;20555;-76
2023/09/29 00:49:05;;;;;;;4.90;3.25;;;24.90;99.90;;;;;;5048606;28;20193;-75
2023/09/29 00:51:37;;;;;;;3.38;2.95;;;25.00;99.90;;;;;;5057847;28;20193;-76
2023/09/29 00:54:09;;;;;;;3.50;3.17;;;25.10;99.90;;;;;;5066931;28;20201;-76
2023/09/29 00:56:43;;;;;;;4.78;3.53;;;25.20;99.90;;;;;;5068441;28;20229;-79
2023/09/29 00:59:14;;;;;;;4.97;3.00;;;25.30;99.90;;;;;;5054012;28;20281;-79
2023/09/29 01:01:45;;;;;;;3.38;3.03;;;25.40;99.90;;;;;;5061715;28;20841;-81
2023/09/29 01:04:16;;;;;;;5.82;4.18;;;25.70;99.90;;;;;;5052000;28;20207;-81
2023/09/29 01:06:50;;;;;;;4.47;3.35;;;25.80;99.90;;;;;;5053480;28;20194;-80
2023/09/29 01:09:21;;;;;;;3.47;3.17;;;26.00;99.90;;;;;;5049101;28;20233;-81
2023/09/29 01:11:55;;;;;;;3.40;3.10;;;26.10;99.90;;;;;;5051506;28;20250;-78
2023/09/29 01:14:26;;;;;;;4.07;2.95;;;26.10;99.90;;;;;;5065483;28;20244;-80
2023/09/29 01:16:57;;;;;;;3.45;3.10;;;26.10;99.90;;;;;;5066861;28;20239;-76
2023/09/29 01:19:28;;;;;;;4.32;2.80;;;26.20;99.90;;;;;;5059157;28;20220;-78
2023/09/29 01:21:59;;;;;;;3.97;3.00;;;26.30;99.90;;;;;;5055494;28;20202;-80
2023/09/29 01:24:32;;;;;;;5.22;3.20;;;26.50;99.90;;;;;;5046499;28;20229;-77
2023/09/29 01:27:03;;;;;;;4.55;3.55;;;26.60;99.90;;;;;;5045682;28;20618;-77
2023/09/29 01:29:34;;;;;;;5.05;3.58;;;26.70;99.90;;;;;;5053035;28;20210;-80
2023/09/29 01:32:05;;;;;;;5.75;3.30;;;26.70;99.90;;;;;;5051021;28;20202;-76
2023/09/29 01:34:36;;;;;;;5.38;2.80;;;26.80;99.90;;;;;;5050207;28;20197;-80
2023/09/29 01:37:07;;;;;;;5.38;3.50;;;26.80;99.90;;;;;;5041530;28;20550;-80
2023/09/29 01:39:40;;;;;;;5.63;3.30;;;26.90;99.90;;;;;;5055480;28;20661;-81
2023/09/29 01:42:11;;;;;;;3.90;3.20;;;27.00;99.90;;;;;;5055706;28;20277;-82
2023/09/29 01:44:42;;;;;;;5.43;3.40;;;27.10;99.90;;;;;;5050398;28;20202;-81
2023/09/29 01:47:12;;;;;;;5.78;3.55;;;27.20;99.90;;;;;;5036388;28;20213;-78
2023/09/29 01:49:43;;;;;;;5.68;2.85;;;27.30;99.90;;;;;;5047254;28;20245;-79
2023/09/29 01:52:14;;;;;;;3.75;3.00;;;27.40;99.90;;;;;;5048635;28;20807;-77
2023/09/29 01:54:47;;;;;;;3.35;3.05;;;27.40;99.90;;;;;;5053096;28;20198;-79
2023/09/29 01:57:18;;;;;;;4.30;3.25;;;27.40;99.90;;;;;;5052241;28;20198;-77
2023/09/29 01:59:49;;;;;;;11.52;7.75;;;27.40;99.90;;;;;;5054391;28;20244;-78
2023/09/29 02:02:20;;;;;;;4.15;3.30;;;27.40;99.90;;;;;;5051042;28;20275;-78
2023/09/29 02:04:52;;;;;;;3.40;2.90;;;27.50;99.90;;;;;;5053922;28;20284;-78
2023/09/29 02:07:24;;;;;;;3.97;3.25;;;27.50;99.90;;;;;;5053679;28;20207;-76
2023/09/29 02:09:57;;;;;;;4.20;3.10;;;27.50;99.90;;;;;;5053866;28;20247;-78
2023/09/29 02:12:31;;;;;;;3.42;3.13;;;27.50;99.90;;;;;;5052319;28;20276;-76
2023/09/29 02:15:06;;;;;;;4.32;3.20;;;27.40;99.90;;;;;;5054974;28;20308;-80
2023/09/29 02:17:37;;;;;;;5.20;3.40;;;27.40;99.90;;;;;;5052597;28;20213;-76
2023/09/29 02:20:14;;;;;;;4.18;3.20;;;27.40;99.90;;;;;;5054724;28;20198;-80
2023/09/29 02:22:45;;;;;;;3.10;2.78;;;27.40;99.90;;;;;;5054946;28;20236;-80
2023/09/29 02:25:18;;;;;;;5.47;3.65;;;27.40;99.90;;;;;;5052753;28;20194;-80
2023/09/29 02:27:50;;;;;;;3.45;2.90;;;27.40;99.90;;;;;;5052759;28;20190;-81
2023/09/29 02:30:20;;;;;;;10.25;4.75;;;27.40;99.90;;;;;;5052820;28;20221;-81
2023/09/29 02:32:52;;;;;;;4.93;3.28;;;27.40;99.90;;;;;;5051890;28;20190;-79
2023/09/29 02:35:23;;;;;;;4.43;3.20;;;27.40;99.90;;;;;;5052587;28;20193;-76
2023/09/29 02:37:54;;;;;;;4.88;3.15;;;27.60;99.90;;;;;;5052731;28;20193;-75
2023/09/29 02:40:28;;;;;;;5.25;3.13;;;27.70;99.90;;;;;;5054332;28;20203;-76
2023/09/29 02:42:59;;;;;;;5.53;3.88;;;27.70;99.90;;;;;;5054407;28;20194;-76
2023/09/29 02:45:30;;;;;;;3.35;3.00;;;27.70;99.90;;;;;;5054393;28;20190;-76
2023/09/29 02:48:02;;;;;;;5.38;3.47;;;27.70;99.90;;;;;;5054227;28;20190;-76
2023/09/29 02:50:34;;;;;;;4.68;3.25;;;27.70;99.90;;;;;;5054228;28;20222;-76
2023/09/29 02:53:07;;;;;;;4.93;3.30;;;27.80;99.90;;;;;;5073427;28;20199;-75
2023/09/29 02:55:40;;;;;;;6.65;3.25;;;27.80;99.90;;;;;;5072773;28;20189;-76
2023/09/29 02:58:11;;;;;;;5.30;3.45;;;27.80;99.90;;;;;;5073155;28;20549;-75
2023/09/29 03:00:43;;;;;;;4.32;3.30;;;27.80;99.90;;;;;;5073106;28;20547;-75
2023/09/29 03:03:14;;;;;;;5.68;3.22;;;27.70;99.90;;;;;;5072710;28;20221;-76
2023/09/29 03:05:45;;;;;;;5.88;3.40;;;27.70;99.90;;;;;;5073134;28;20664;-80
2023/09/29 03:08:17;;;;;;;6.53;3.72;;;27.70;99.90;;;;;;5073371;28;20618;-80
2023/09/29 03:10:50;;;;;;;6.40;3.55;;;27.70;99.90;;;;;;5055677;28;20331;-77
2023/09/29 03:13:21;;;;;;;4.90;3.47;;;27.70;99.90;;;;;;5050652;28;20651;-74
2023/09/29 03:15:52;;;;;;;6.45;3.45;;;27.70;99.90;;;;;;5052526;28;20197;-76
2023/09/29 03:18:22;;;;;;;3.78;3.20;;;27.70;99.90;;;;;;5052530;28;20543;-76
2023/09/29 03:20:53;;;;;;;5.22;3.92;;;27.70;99.90;;;;;;5048248;28;20202;-75
2023/09/29 03:23:24;;;;;;;5.90;3.40;;;27.70;99.90;;;;;;5049052;28;20197;-76
2023/09/29 03:25:57;;;;;;;6.03;3.70;;;27.60;99.90;;;;;;5053230;28;20197;-80
2023/09/29 03:28:27;;;;;;;7.15;3.40;;;27.60;99.90;;;;;;5050821;28;20664;-76
2023/09/29 03:31:01;;;;;;;6.10;3.60;;;27.60;99.90;;;;;;5051170;28;20217;-81
2023/09/29 03:33:32;;;;;;;8.65;3.90;;;27.50;99.90;;;;;;5052002;28;20267;-80
2023/09/29 03:36:03;;;;;;;4.82;3.47;;;27.50;99.90;;;;;;5053066;28;20280;-75
2023/09/29 03:38:37;;;;;;;6.50;3.70;;;27.60;99.90;;;;;;5033622;28;20191;-75
2023/09/29 03:41:10;;;;;;;6.57;3.63;;;27.60;99.90;;;;;;5046993;28;20197;-74
2023/09/29 03:43:41;;;;;;;6.22;3.85;;;27.60;99.90;;;;;;5052336;28;20200;-75
2023/09/29 03:46:21;;;;;;;4.25;3.50;;;27.50;99.90;;;;;;5053090;28;20189;-74
2023/09/29 03:48:52;;;;;;;3.90;3.50;;;27.50;99.90;;;;;;5052461;28;20723;-75
2023/09/29 03:51:26;;;;;;;3.53;2.92;;;27.50;99.90;;;;;;5050744;28;20220;-74
2023/09/29 03:53:57;;;;;;;5.28;3.50;;;27.50;99.90;;;;;;5053026;28;20196;-75
2023/09/29 03:56:30;;;;;;;5.18;3.45;;;27.60;99.90;;;;;;5035942;28;20198;-75
2023/09/29 03:59:01;;;;;;;4.82;3.83;;;27.50;99.90;;;;;;5053258;28;20212;-75
2023/09/29 04:01:32;;;;;;;5.32;3.67;;;27.40;99.90;;;;;;5052024;28;20658;-75
2023/09/29 04:04:03;;;;;;;4.35;3.30;;;27.50;99.90;;;;;;5049840;28;20216;-75
2023/09/29 04:06:34;;;;;;;4.13;3.30;;;27.50;99.90;;;;;;5052205;28;20205;-75
2023/09/29 04:09:05;;;;;;;4.30;3.17;;;27.50;99.90;;;;;;5051588;28;20298;-75
2023/09/29 04:11:40;;;;;;;3.55;3.10;;;27.60;99.90;;;;;;5050550;28;20217;-79
2023/09/29 04:14:10;;;;;;;4.95;3.22;;;27.50;99.90;;;;;;5048876;28;20196;-79
2023/09/29 04:16:41;;;;;;;5.90;3.30;;;27.60;99.90;;;;;;5052925;28;20189;-81
2023/09/29 04:19:12;;;;;;;4.45;3.47;;;27.60;99.90;;;;;;5052114;28;20285;-78
2023/09/29 04:21:44;;;;;;;4.22;3.40;;;27.50;99.90;;;;;;5051117;28;20201;-80
2023/09/29 04:24:15;;;;;;;5.85;3.50;;;27.40;99.90;;;;;;5052273;28;20202;-80
2023/09/29 04:26:48;;;;;;;5.93;3.60;;;27.40;99.90;;;;;;5052975;28;20190;-79
2023/09/29 04:29:19;;;;;;;4.95;3.80;;;27.30;99.90;;;;;;5042362;28;20197;-76
2023/09/29 04:31:50;;;;;;;4.93;3.63;;;27.40;99.90;;;;;;5041115;28;20214;-76
2023/09/29 04:34:20;;;;;;;4.78;3.38;;;27.40;99.90;;;;;;5041288;28;20198;-82
2023/09/29 04:36:51;;;;;;;5.57;3.63;;;27.40;99.90;;;;;;5045309;28;20194;-77
2023/09/29 04:39:24;;;;;;;5.50;3.63;;;27.30;99.90;;;;;;5058385;28;20218;-82
2023/09/29 04:41:57;;;;;;;5.93;3.65;;;27.30;99.90;;;;;;5051029;28;20193;-81
2023/09/29 04:44:27;;;;;;;5.20;3.55;;;27.20;99.90;;;;;;5048388;28;20193;-78
2023/09/29 04:46:58;;;;;;;4.88;3.35;;;27.10;99.90;;;;;;5048781;28;20285;-77
2023/09/29 04:49:29;;;;;;;4.15;3.38;;;27.10;99.90;;;;;;5048611;28;20201;-79
2023/09/29 04:52:00;;;;;;;5.35;3.47;;;27.00;99.90;;;;;;5049017;28;20217;-79
2023/09/29 04:54:31;;;;;;;5.15;3.53;;;26.90;99.90;;;;;;5066808;28;20197;-79
2023/09/29 04:57:03;;;;;;;5.55;3.10;;;26.90;99.90;;;;;;5053650;28;20197;-78
2023/09/29 04:59:34;;;;;;;5.63;3.20;;;26.90;99.90;;;;;;5058139;28;20561;-81
2023/09/29 05:02:05;;;;;;;4.53;3.15;;;26.90;99.90;;;;;;5055579;28;20224;-76
2023/09/29 05:04:36;;;;;;;4.25;3.05;;;26.90;99.90;;;;;;5074720;28;20196;-79
2023/09/29 05:07:07;;;;;;;3.03;2.67;;;26.90;99.90;;;;;;5052758;28;20194;-83
2023/09/29 05:09:39;;;;;;;4.45;2.63;;;26.80;99.90;;;;;;5056162;28;20324;-81
2023/09/29 05:12:12;;;;;;;4.05;2.95;;;26.60;99.90;;;;;;5055947;28;20217;-81
2023/09/29 05:14:43;;;;;;;6.97;3.80;;;26.50;99.90;;;;;;5064264;28;20200;-81
2023/09/29 05:17:14;;;;;;;8.93;3.70;;;26.50;99.90;;;;;;5054123;28;20190;-79
2023/09/29 05:19:44;;;;;;;4.03;3.20;;;26.20;99.90;;;;;;5050960;28;20661;-81
2023/09/29 05:22:15;;;;;;;4.97;3.42;;;25.90;99.90;;;;;;5055077;28;20213;-81
2023/09/29 05:24:46;;;;;;;4.53;3.38;;;25.70;99.90;;;;;;5055427;28;20197;-79
2023/09/29 05:27:19;;;;;;;4.00;3.17;;;25.50;99.90;;;;;;5054948;28;20665;-81
2023/09/29 05:29:50;;;;;;;3.78;3.47;;;25.40;99.90;;;;;;5052534;28;20201;-82
2023/09/29 05:32:20;;;;;;;4.60;3.53;;;25.20;99.90;;;;;;5051970;28;20233;-86
2023/09/29 05:34:51;;;;;;;6.57;3.90;;;25.10;99.90;;;;;;5043213;28;20280;-81
2023/09/29 05:37:22;;;;;;;4.15;3.63;;;24.90;99.90;;;;;;5054886;28;20189;-80
2023/09/29 05:39:56;;;;;;;5.38;3.63;;;24.80;99.90;;;;;;5054580;28;20201;-81
2023/09/29 05:42:28;;;;;;;4.32;3.13;;;24.40;99.90;;;;;;5054531;28;20209;-80
2023/09/29 05:45:02;;;;;;;4.95;3.40;;;24.20;99.90;;;;;;5054411;28;20217;-86
2023/09/29 05:47:41;;;;;;;5.55;2.78;;;24.10;99.90;;;;;;5054541;28;20194;-78
2023/09/29 05:50:12;;;;;;;3.83;2.90;;;24.00;99.90;;;;;;5035588;28;20642;-75
2023/09/29 05:52:41;;;;;;;3.80;2.50;;;24.00;99.90;;;;;;5047740;28;20225;-81
2023/09/29 05:55:12;;;;;;;4.80;2.42;;;24.00;99.90;;;;;;5055416;28;20201;-79
2023/09/29 05:57:45;;;;;;;3.65;2.50;;;23.90;99.90;;;;;;5054913;28;20284;-76
2023/09/29 06:00:16;;;;;;;3.22;2.38;;;24.00;99.90;;;;;;5040890;28;20215;-80
2023/09/29 06:02:48;;;;;;;3.17;2.60;;;24.00;99.90;;;;;;5053890;28;20221;-80
2023/09/29 06:05:18;;;;;;;3.42;2.60;;;24.00;99.90;;;;;;5055651;28;20680;-79
2023/09/29 06:07:49;;;;;;;3.70;2.97;;;24.00;99.90;;;;;;5053724;28;20204;-76
2023/09/29 06:10:20;;;;;;;3.60;2.65;;;24.00;99.90;;;;;;5054690;28;20231;-76
2023/09/29 06:12:53;;;;;;;5.00;3.15;;;24.00;99.90;;;;;;5053740;28;20221;-78
2023/09/29 06:15:28;;;;;;;4.53;3.55;;;23.90;99.90;;;;;;5047089;28;20200;-80
2023/09/29 06:18:00;;;;;;;3.53;3.15;;;23.90;99.90;;;;;;5045137;28;20193;-80
2023/09/29 06:20:30;;;;;;;5.25;3.30;;;23.80;99.90;;;;;;5053156;28;20197;-77
2023/09/29 06:23:01;;;;;;;3.70;2.90;;;23.80;99.90;;;;;;5046379;28;20194;-77
2023/09/29 06:25:33;;;;;;;4.47;2.90;;;23.70;99.90;;;;;;5053793;28;20190;-78
2023/09/29 06:28:05;;;;;;;5.78;3.33;;;23.70;99.90;;;;;;5054553;28;20221;-75
2023/09/29 06:30:36;;;;;;;4.45;2.95;;;23.60;99.90;;;;;;5054535;28;20194;-80
2023/09/29 06:33:08;;;;;;;3.20;2.40;;;23.60;99.90;;;;;;5049790;28;20539;-80
2023/09/29 06:35:39;;;;;;;3.90;2.88;;;23.60;99.90;;;;;;5052052;28;20681;-80
2023/09/29 06:38:10;;;;;;;3.88;3.10;;;23.60;99.90;;;;;;5048703;28;20210;-77
2023/09/29 06:40:41;;;;;;;3.38;2.45;;;23.60;99.90;;;;;;5049597;28;20210;-81
2023/09/29 06:43:14;;;;;;;4.10;2.78;;;23.60;99.90;;;;;;5047336;28;20225;-80
2023/09/29 06:45:45;;;;;;;3.30;2.67;;;23.50;99.90;;;;;;5053018;28;20727;-81
2023/09/29 06:48:16;;;;;;;4.72;2.85;;;23.40;99.90;;;;;;5052837;28;20237;-80
2023/09/29 06:50:47;;;;;;;4.03;2.78;;;23.40;99.90;;;;;;5051262;28;20202;-76
2023/09/29 06:53:18;;;;;;;3.47;2.50;;;23.30;99.90;;;;;;5045050;28;20206;-78
2023/09/29 06:55:48;;;;;;;5.80;2.90;;;23.20;99.90;;;;;;5042588;28;20196;-75
2023/09/29 06:58:21;;;;;;;5.50;3.00;;;23.10;99.90;;;;;;5044511;28;20196;-79
2023/09/29 07:00:52;;;;;;;4.57;2.72;;;23.00;99.90;;;;;;5050846;28;20217;-78
2023/09/29 07:03:23;;;;;;;4.22;2.78;;;22.80;99.90;;;;;;5049144;28;20609;-74
2023/09/29 07:05:54;;;;;;;4.93;2.90;;;22.80;99.90;;;;;;5049748;28;20219;-74
2023/09/29 07:08:25;;;;;;;3.60;2.63;;;22.70;99.90;;;;;;5053149;28;20563;-76
2023/09/29 07:10:56;;;;;;;5.65;3.08;;;22.70;99.90;;;;;;5052248;28;20588;-77
2023/09/29 07:13:28;;;;;;;4.95;2.88;;;22.60;99.90;;;;;;5051159;28;20198;-75
2023/09/29 07:15:59;;;;;;;4.57;3.00;;;22.50;99.90;;;;;;5052439;28;20212;-78
2023/09/29 07:18:30;;;;;;;4.70;3.08;;;22.50;99.90;;;;;;5051317;28;20277;-75
2023/09/29 07:21:01;;;;;;;5.65;3.10;;;22.50;99.90;;;;;;5053564;28;20197;-74
2023/09/29 07:23:34;;;;;;;4.22;3.05;;;22.40;99.90;;;;;;5052949;28;20193;-77
2023/09/29 07:26:06;;;;;;;3.97;2.97;;;22.30;99.90;;;;;;5041301;28;20228;-77
2023/09/29 07:28:39;;;;;;;6.22;3.30;;;22.20;99.90;;;;;;5047596;28;20573;-80
2023/09/29 07:31:10;;;;;;;5.10;3.50;;;22.20;99.90;;;;;;5047176;28;20202;-77
2023/09/29 07:33:40;;;;;;;5.45;3.10;;;22.10;99.90;;;;;;5050969;28;20665;-77
2023/09/29 07:36:11;;;;;;;4.90;2.97;;;22.00;99.90;;;;;;5047051;28;20197;-77
2023/09/29 07:38:42;;;;;;;4.93;3.28;;;22.00;99.90;;;;;;5042909;28;20194;-75
2023/09/29 07:41:13;;;;;;;4.70;3.17;;;21.90;99.90;;;;;;5051211;28;20233;-76
2023/09/29 07:43:47;;;;;;;3.63;3.17;;;21.90;99.90;;;;;;5052144;28;20568;-76
2023/09/29 07:46:18;;;;;;;4.78;3.08;;;21.80;99.90;;;;;;5041730;28;20211;-76
2023/09/29 07:48:49;;;;;;;5.00;3.28;;;21.70;99.90;;;;;;5051505;28;20553;-81
2023/09/29 07:51:20;;;;;;;4.43;2.88;;;21.70;99.90;;;;;;5051946;28;20201;-77
2023/09/29 07:53:50;;;;;;;4.13;2.83;;;21.60;99.90;;;;;;5050905;28;20654;-77
2023/09/29 07:56:21;;;;;;;4.80;3.10;;;21.50;99.90;;;;;;5047418;28;20232;-77
2023/09/29 07:58:54;;;;;;;4.50;3.22;;;21.50;99.90;;;;;;5040464;28;20206;-76
2023/09/29 08:01:25;;;;;;;4.30;3.55;;;21.40;99.90;;;;;;5050685;28;20221;-75
2023/09/29 08:03:57;;;;;;;5.15;3.28;;;21.40;99.90;;;;;;5046888;28;20563;-75
2023/09/29 08:06:28;;;;;;;6.55;3.35;;;21.30;99.90;;;;;;5039872;28;20226;-81
2023/09/29 08:09:00;;;;;;;4.15;2.85;;;21.30;99.90;;;;;;5045573;28;20732;-80
2023/09/29 08:11:31;;;;;;;4.00;3.17;;;21.20;99.90;;;;;;5041403;28;20256;-75
2023/09/29 08:14:04;;;;;;;4.47;3.10;;;21.10;99.90;;;;;;5038728;28;20198;-83
2023/09/29 08:16:34;;;;;;;5.18;3.30;;;21.10;99.90;;;;;;5051718;28;20189;-81
2023/09/29 08:19:05;;;;;;;5.22;3.10;;;21.00;99.90;;;;;;5049263;28;20201;-83
2023/09/29 08:21:36;;;;;;;2.90;2.50;;;20.90;99.90;;;;;;5046872;28;20235;-78
2023/09/29 08:24:08;;;;;;;4.30;3.10;;;20.90;99.90;;;;;;5046660;28;20198;-83
2023/09/29 08:26:39;;;;;;;5.07;3.22;;;20.80;99.90;;;;;;5041415;28;20608;-77
2023/09/29 08:29:15;;;;;;;4.07;2.80;;;20.80;99.90;;;;;;5047154;28;20193;-80
2023/09/29 08:31:46;;;;;;;4.57;3.22;;;20.70;99.90;;;;;;5049824;28;20304;-82
2023/09/29 08:34:17;;;;;;;5.68;3.20;;;20.70;99.90;;;;;;5044966;28;20205;-78
2023/09/29 08:36:48;;;;;;;4.57;3.00;;;20.60;99.90;;;;;;5046853;28;20197;-76
2023/09/29 08:39:20;;;;;;;5.65;3.10;;;20.60;99.90;;;;;;5048672;28;20215;-78
2023/09/29 08:41:55;;;;;;;4.13;3.22;;;20.50;99.90;;;;;;5049046;28;20211;-82
2023/09/29 08:44:29;;;;;;;3.75;2.88;;;20.40;99.90;;;;;;5054977;28;20600;-83
2023/09/29 08:47:03;;;;;;;3.80;2.97;;;20.40;99.90;;;;;;5047514;28;20205;-81
2023/09/29 08:49:35;;;;;;;5.03;3.15;;;20.40;99.90;;;;;;5046522;28;20208;-82
2023/09/29 08:52:07;;;;;;;6.15;3.50;;;20.40;99.90;;;;;;5051107;28;20219;-81
2023/09/29 08:54:38;;;;;;;5.00;3.53;;;20.30;99.90;;;;;;5051909;28;20193;-84
2023/09/29 08:57:10;;;;;;;4.22;3.30;;;20.20;99.90;;;;;;5042905;28;20205;-84
2023/09/29 08:59:46;;;;;;;6.90;3.10;;;20.20;99.90;;;;;;5048828;28;20255;-85
2023/09/29 09:02:17;;;;;;;4.32;2.88;;;20.10;99.90;;;;;;5052610;28;20566;-81
2023/09/29 09:04:48;;;;;;;4.72;3.15;;;20.10;99.90;;;;;;5053838;28;20572;-83
2023/09/29 09:07:19;;;;;;;6.38;3.15;;;20.00;99.90;;;;;;5051195;28;20201;-81
2023/09/29 09:09:55;;;;;;;4.45;3.08;;;20.00;99.90;;;;;;5051729;28;20315;-83
2023/09/29 09:12:36;;;;;;;5.70;3.60;;;19.90;99.90;;;;;;5045903;28;20231;-77
2023/09/29 09:15:14;;;;;;;6.90;3.80;;;19.80;99.90;;;;;;5051062;28;20281;-83
2023/09/29 09:17:44;;;;;;;7.68;4.38;;;19.80;99.90;;;;;;5055346;28;20540;-83
2023/09/29 09:20:18;;;;;;;7.55;5.03;;;19.80;99.90;;;;;;5050370;28;20665;-83
2023/09/29 09:22:59;;;;;;;7.53;4.53;;;19.80;99.90;;;;;;5052093;28;20193;-82
2023/09/29 09:25:41;;;;;;;7.13;4.78;;;19.70;99.90;;;;;;5048320;28;20197;-84
2023/09/29 09:28:18;;;;;;;8.07;4.85;;;19.80;99.90;;;;;;5047208;28;20205;-84
2023/09/29 09:31:01;;;;;;;8.15;4.97;;;19.80;99.90;;;;;;5051445;28;20193;-82
2023/09/29 09:33:33;;;;;;;9.98;5.82;;;19.80;99.90;;;;;;5041949;28;20225;-84
2023/09/29 09:36:13;;;;;;;11.07;5.78;;;19.80;99.90;;;;;;5051340;28;20727;-84
2023/09/29 09:38:45;;;;;;;10.65;5.65;;;19.70;99.90;;;;;;5043524;28;20198;-84
2023/09/29 09:41:17;;;;;;;11.02;6.57;;;19.70;99.90;;;;;;5048220;28;20198;-84
2023/09/29 09:43:49;;;;;;;10.07;6.55;;;19.60;99.90;;;;;;5049231;28;20233;-83
2023/09/29 09:46:22;;;;;;;10.00;6.55;;;19.60;99.90;;;;;;5048947;28;20232;-84
2023/09/29 09:48:57;;;;;;;11.10;6.72;;;19.50;99.90;;;;;;5042513;28;20626;-84
2023/09/29 09:51:36;;;;;;;10.80;6.28;;;19.50;99.90;;;;;;5049865;28;20197;-84
2023/09/29 09:54:10;;;;;;;10.95;6.60;;;19.40;99.90;;;;;;5051730;28;20222;-83
2023/09/29 09:56:46;;;;;;;13.30;7.57;;;19.40;99.90;;;;;;5053351;28;20208;-83
2023/09/29 09:59:18;;;;;;;13.38;7.97;;;19.30;99.90;;;;;;5055251;28;20216;-84
2023/09/29 10:01:53;;;;;;;11.05;7.70;;;19.30;99.90;;;;;;5054167;28;20201;-84
2023/09/29 10:04:24;;;;;;;12.77;7.93;;;19.30;99.90;;;;;;5053630;28;20246;-84
2023/09/29 10:06:56;;;;;;;12.27;7.32;;;19.20;99.90;;;;;;5047386;28;20701;-84
2023/09/29 10:09:27;;;;;;;11.20;6.53;;;19.20;99.90;;;;;;5054905;28;20243;-83
2023/09/29 10:12:05;;;;;;;10.18;5.82;;;19.60;99.90;;;;;;5055207;28;20196;-85
2023/09/29 10:14:44;;;;;;;9.65;5.70;;;19.20;99.90;;;;;;5053929;28;20197;-84
2023/09/29 10:17:17;;;;;;;11.32;6.00;;;19.20;99.90;;;;;;5052438;28;20616;-84
2023/09/29 10:19:50;;;;;;;10.75;5.68;;;19.20;99.90;;;;;;5050241;28;20209;-84
2023/09/29 10:22:29;;;;;;;13.02;5.80;;;19.10;99.90;;;;;;5051234;28;20193;-84
2023/09/29 10:25:00;;;;;;;9.30;5.22;;;19.10;99.90;;;;;;5052743;28;20197;-84
2023/09/29 10:27:34;;;;;;;9.38;5.68;;;19.10;99.90;;;;;;5045204;28;20198;-85
2023/09/29 10:30:18;;;;;;;10.82;5.60;;;19.10;99.90;;;;;;5052203;28;20229;-85
2023/09/29 10:32:51;;;;;;;9.05;5.57;;;19.30;99.90;;;;;;5053162;28;20229;-85
2023/09/29 10:35:24;;;;;;;9.40;5.40;;;19.10;99.90;;;;;;5050311;28;20233;-85
2023/09/29 10:37:56;;;;;;;9.65;5.35;;;19.10;99.90;;;;;;5050359;28;20292;-84
2023/09/29 10:40:32;;;;;;;10.65;5.35;;;19.10;99.90;;;;;;5045391;28;20610;-83
2023/09/29 10:43:03;;;;;;;10.27;4.97;;;19.10;99.90;;;;;;5044963;28;20653;-79
2023/09/29 10:45:40;;;;;;;9.50;5.20;;;19.10;99.90;;;;;;5049471;28;20208;-83
2023/09/29 10:48:13;;;;;;;8.38;5.60;;;19.00;99.90;;;;;;5051350;28;20653;-78
2023/09/29 10:50:45;;;;;;;11.02;6.18;;;19.00;99.90;;;;;;5051490;28;20680;-83
2023/09/29 10:53:16;;;;;;;10.52;7.40;;;19.00;99.90;;;;;;5045887;28;20217;-84
2023/09/29 10:55:48;;;;;;;10.25;6.38;;;19.00;99.90;;;;;;5048563;28;20198;-81
2023/09/29 10:58:20;;;;;;;9.52;6.60;;;19.00;99.90;;;;;;5045997;28;20225;-80
2023/09/29 11:00:53;;;;;;;10.90;6.60;;;18.90;99.90;;;;;;5051212;28;20248;-76
2023/09/29 11:03:30;;;;;;;11.43;6.93;;;18.90;99.90;;;;;;5053015;28;20193;-83
2023/09/29 11:06:08;;;;;;;13.43;7.63;;;18.80;99.90;;;;;;5050340;28;20193;-75
2023/09/29 11:08:43;;;;;;;12.95;7.72;;;18.70;99.90;;;;;;5048545;28;20562;-83
2023/09/29 11:11:13;;;;;;;17.52;7.00;;;18.70;99.90;;;;;;5009988;28;20198;-77
2023/09/29 11:13:44;;;;;;;15.32;8.40;;;18.60;99.90;;;;;;5011032;28;20277;-80
2023/09/29 11:16:24;;;;;;;14.80;8.65;;;18.60;99.90;;;;;;5009388;28;20203;-84
2023/09/29 11:18:57;;;;;;;13.80;8.38;;;18.50;99.90;;;;;;5001299;28;20198;-82
2023/09/29 11:21:38;;;;;;;13.43;8.48;;;18.50;99.90;;;;;;5006018;28;20660;-83
2023/09/29 11:24:10;;;;;;;12.98;8.18;;;18.40;99.90;;;;;;5010736;28;20749;-81
2023/09/29 11:26:46;;;;;;;12.55;9.05;;;18.30;99.90;;;;;;5004792;28;20204;-78
2023/09/29 11:29:24;;;;;;;15.30;10.07;;;18.30;99.90;;;;;;5008225;28;20674;-84
2023/09/29 11:31:54;;;;;;;16.92;10.18;;;18.30;99.90;;;;;;5013014;28;20197;-84
2023/09/29 11:34:29;;;;;;;15.77;10.63;;;18.20;99.90;;;;;;5014296;28;20740;-85
2023/09/29 11:37:00;;;;;;;18.77;11.10;;;18.20;99.90;;;;;;5011453;28;20248;-84
2023/09/29 11:39:31;;;;;;;18.00;9.77;;;18.20;99.90;;;;;;5009931;28;20195;-85
2023/09/29 11:42:04;;;;;;;15.27;9.70;;;18.20;99.90;;;;;;5011412;28;20203;-84
2023/09/29 11:44:35;;;;;;;13.57;9.13;;;18.20;99.90;;;;;;5007532;28;20569;-82
2023/09/29 11:47:06;;;;;;;16.55;8.95;;;18.20;99.90;;;;;;5008823;28;20204;-81
2023/09/29 11:49:39;;;;;;;16.45;9.18;;;18.20;99.90;;;;;;5007868;28;20202;-86
2023/09/29 11:52:10;;;;;;;19.02;9.07;;;18.20;99.90;;;;;;5009418;28;20229;-82
2023/09/29 11:54:41;;;;;;;14.90;8.55;;;18.20;99.90;;;;;;5008600;28;20257;-84
2023/09/29 11:57:11;;;;;;;16.95;8.98;;;18.20;99.90;;;;;;5009318;28;20616;-85
2023/09/29 11:59:42;;;;;;;15.23;8.48;;;18.20;99.90;;;;;;5010892;28;20230;-85
2023/09/29 12:02:13;;;;;;;14.23;7.80;;;18.10;99.90;;;;;;5007818;28;20197;-84
2023/09/29 12:04:46;;;;;;;13.20;7.38;;;18.20;99.90;;;;;;5009285;28;20234;-84
2023/09/29 12:07:17;;;;;;;16.83;7.70;;;18.10;99.90;;;;;;5009791;28;20282;-83
2023/09/29 12:09:47;;;;;;;13.93;7.80;;;18.10;99.90;;;;;;5026962;28;20248;-84
2023/09/29 12:12:19;;;;;;;14.85;7.30;;;18.10;99.90;;;;;;5047183;28;20202;-84
2023/09/29 12:14:50;;;;;;;12.07;7.90;;;18.10;99.90;;;;;;5048964;28;20218;-85
2023/09/29 12:17:20;;;;;;;13.90;7.85;;;18.10;99.90;;;;;;5046088;28;20650;-86
2023/09/29 12:19:54;;;;;;;12.38;8.13;;;18.10;99.90;;;;;;5049128;28;20316;-84
2023/09/29 12:22:24;;;;;;;14.90;8.32;;;18.10;99.90;;;;;;5049113;28;20190;-85
2023/09/29 12:24:55;;;;;;;13.82;8.02;;;18.00;99.90;;;;;;5050079;28;20197;-85
2023/09/29 12:27:26;;;;;;;15.70;8.02;;;18.00;99.90;;;;;;5048128;28;20219;-84
2023/09/29 12:29:57;;;;;;;14.48;7.70;;;18.00;99.90;;;;;;5049645;28;20189;-85
2023/09/29 12:32:28;;;;;;;16.80;8.50;;;18.00;99.90;;;;;;5050137;28;20225;-85
2023/09/29 12:35:00;;;;;;;12.55;7.43;;;18.00;99.90;;;;;;5050963;28;20221;-85
2023/09/29 12:37:31;;;;;;;13.65;7.57;;;18.00;99.90;;;;;;5051135;28;20205;-84
2023/09/29 12:40:02;;;;;;;13.07;7.60;;;17.90;99.90;;;;;;5051790;28;20201;-85
2023/09/29 12:42:33;;;;;;;12.32;6.53;;;17.90;99.90;;;;;;5051584;28;20280;-86
2023/09/29 12:45:04;;;;;;;11.90;6.47;;;18.00;99.90;;;;;;5050030;28;20204;-87
2023/09/29 12:47:34;;;;;;;14.55;6.80;;;17.90;99.90;;;;;;5045810;28;20201;-79
2023/09/29 12:50:08;;;;;;;12.65;6.30;;;17.90;99.90;;;;;;5044493;28;20208;-86
2023/09/29 12:52:39;;;;;;;13.30;6.93;;;17.90;99.90;;;;;;5048109;28;20194;-85
2023/09/29 12:55:11;;;;;;;13.02;6.80;;;17.90;99.90;;;;;;5045172;28;20703;-86
2023/09/29 12:57:43;;;;;;;14.07;6.82;;;17.90;99.90;;;;;;5044179;28;20190;-86
2023/09/29 13:00:18;;;;;;;11.85;6.55;;;17.80;99.90;;;;;;5048397;28;20233;-86
2023/09/29 13:02:52;;;;;;;12.90;7.38;;;17.80;99.90;;;;;;5053013;28;20190;-86
2023/09/29 13:05:25;;;;;;;12.88;7.13;;;17.80;99.90;;;;;;5051825;28;20201;-86
2023/09/29 13:07:56;;;;;;;12.10;7.18;;;17.70;99.90;;;;;;5053140;28;20186;-86